createdAt,value
2018-03-27T00:01:20.676Z,59.20
2018-03-27T00:03:48.258Z,59.60
2018-03-27T00:06:15.832Z,59.60
2018-03-27T00:08:43.419Z,59.70
2018-03-27T00:11:11.011Z,60.00
2018-03-27T00:13:38.615Z,60.20
2018-03-27T00:16:06.166Z,60.10
2018-03-27T00:18:33.783Z,59.80
2018-03-27T00:21:01.384Z,59.30
2018-03-27T00:23:28.961Z,59.60
2018-03-27T00:25:56.509Z,59.30
2018-03-27T00:28:35.842Z,59.10
2018-03-27T00:31:15.136Z,59.00
2018-03-27T00:33:54.545Z,59.10
2018-03-27T00:36:33.825Z,59.20
2018-03-27T00:39:13.848Z,59.40
2018-03-27T00:44:52.527Z,59.50
2018-03-27T00:47:20.122Z,59.90
2018-03-27T00:49:47.675Z,60.20
2018-03-27T00:52:15.262Z,60.10
2018-03-27T00:54:42.824Z,60.50
2018-03-27T00:57:10.357Z,60.50
2018-03-27T00:59:37.944Z,60.50
2018-03-27T01:02:05.531Z,60.70
2018-03-27T01:04:33.836Z,60.70
2018-03-27T01:07:01.392Z,60.70
2018-03-27T01:09:28.920Z,60.60
2018-03-27T01:11:56.535Z,60.80
2018-03-27T01:14:24.072Z,60.70
2018-03-27T01:16:51.682Z,60.60
2018-03-27T01:19:19.240Z,60.50
2018-03-27T01:21:46.812Z,59.90
2018-03-27T01:24:14.384Z,59.30
2018-03-27T01:26:41.904Z,59.50
2018-03-27T01:29:09.469Z,59.60
2018-03-27T01:31:37.112Z,59.90
2018-03-27T01:34:04.689Z,60.00
2018-03-27T01:36:32.216Z,60.20
2018-03-27T01:38:59.772Z,60.70
2018-03-27T01:41:27.323Z,61.00
2018-03-27T01:43:55.643Z,60.20
2018-03-27T01:46:23.213Z,60.20
2018-03-27T01:48:50.759Z,61.10
2018-03-27T01:51:18.323Z,60.10
2018-03-27T01:53:45.877Z,59.80
2018-03-27T01:56:13.465Z,59.70
2018-03-27T01:58:41.008Z,59.90
2018-03-27T02:01:08.621Z,60.70
2018-03-27T02:03:36.179Z,60.70
2018-03-27T02:06:04.486Z,60.30
2018-03-27T02:08:32.056Z,60.30
2018-03-27T02:11:05.354Z,60.60
2018-03-27T02:13:38.393Z,60.60
2018-03-27T02:16:12.494Z,61.00
2018-03-27T02:18:45.636Z,60.90
2018-03-27T02:21:18.866Z,60.90
2018-03-27T02:23:46.408Z,60.50
2018-03-27T02:26:13.984Z,60.10
2018-03-27T02:28:41.569Z,59.90
2018-03-27T02:31:09.913Z,59.60
2018-03-27T02:33:37.509Z,59.60
2018-03-27T02:36:05.066Z,59.70
2018-03-27T02:38:32.609Z,59.70
2018-03-27T02:41:00.204Z,60.40
2018-03-27T02:43:27.794Z,60.40
2018-03-27T02:45:55.353Z,60.30
2018-03-27T02:48:22.961Z,60.60
2018-03-27T02:50:50.536Z,60.70
2018-03-27T02:53:18.910Z,60.90
2018-03-27T02:55:47.211Z,61.00
2018-03-27T02:58:14.785Z,61.00
2018-03-27T03:00:42.410Z,60.90
2018-03-27T03:03:09.990Z,61.00
2018-03-27T03:05:37.588Z,60.90
2018-03-27T03:08:05.172Z,60.80
2018-03-27T03:10:32.704Z,60.70
2018-03-27T03:13:00.291Z,60.70
2018-03-27T03:15:27.822Z,60.70
2018-03-27T03:17:55.410Z,60.70
2018-03-27T03:20:22.974Z,60.70
2018-03-27T03:22:50.554Z,60.60
2018-03-27T03:25:19.045Z,60.70
2018-03-27T03:27:46.642Z,60.70
2018-03-27T03:30:14.204Z,60.30
2018-03-27T03:32:41.793Z,60.70
2018-03-27T03:35:09.365Z,61.00
2018-03-27T03:37:37.761Z,60.70
2018-03-27T03:40:05.317Z,60.70
2018-03-27T03:42:32.906Z,60.70
2018-03-27T03:45:00.498Z,60.70
2018-03-27T03:47:28.057Z,60.50
2018-03-27T03:49:55.603Z,61.10
2018-03-27T03:52:23.163Z,60.40
2018-03-27T03:54:50.722Z,60.50
2018-03-27T03:57:18.286Z,60.50
2018-03-27T03:59:45.865Z,60.80
2018-03-27T04:02:13.404Z,60.60
2018-03-27T04:04:40.963Z,60.90
2018-03-27T04:07:08.599Z,60.50
2018-03-27T04:09:36.233Z,60.50
2018-03-27T04:12:04.603Z,60.50
2018-03-27T04:14:34.003Z,60.30
2018-03-27T04:17:01.630Z,60.20
2018-03-27T04:19:29.244Z,60.50
2018-03-27T04:21:56.802Z,60.40
2018-03-27T04:24:24.365Z,60.00
2018-03-27T04:26:52.732Z,59.80
2018-03-27T04:29:21.094Z,59.80
2018-03-27T04:31:48.635Z,59.80
2018-03-27T04:34:16.209Z,59.60
2018-03-27T04:36:43.801Z,59.80
2018-03-27T04:39:11.393Z,59.60
2018-03-27T04:41:39.027Z,59.10
2018-03-27T04:44:06.585Z,59.10
2018-03-27T04:46:34.148Z,59.00
2018-03-27T04:49:01.694Z,59.00
2018-03-27T04:51:30.034Z,59.20
2018-03-27T04:53:57.605Z,58.60
2018-03-27T04:56:25.188Z,58.80
2018-03-27T04:58:52.746Z,59.30
2018-03-27T05:01:21.092Z,59.60
2018-03-27T05:03:48.660Z,59.40
2018-03-27T05:06:16.227Z,60.00
2018-03-27T05:08:43.777Z,60.90
2018-03-27T05:11:11.380Z,61.30
2018-03-27T05:13:38.913Z,61.00
2018-03-27T05:16:06.494Z,61.80
2018-03-27T05:18:34.821Z,62.10
2018-03-27T05:21:02.398Z,62.10
2018-03-27T05:23:29.963Z,62.00
2018-03-27T05:25:57.551Z,61.70
2018-03-27T05:28:25.890Z,61.70
2018-03-27T05:30:53.457Z,61.60
2018-03-27T05:33:20.997Z,61.50
2018-03-27T05:35:48.951Z,61.50
2018-03-27T05:38:16.511Z,61.40
2018-03-27T05:40:44.157Z,61.50
2018-03-27T05:43:11.696Z,61.30
2018-03-27T05:45:39.243Z,60.70
2018-03-27T05:48:06.851Z,61.10
2018-03-27T05:50:34.426Z,61.30
2018-03-27T05:53:02.047Z,61.40
2018-03-27T05:55:29.738Z,61.10
2018-03-27T05:57:57.295Z,61.00
2018-03-27T06:00:24.830Z,61.50
2018-03-27T06:02:52.406Z,61.70
2018-03-27T06:05:19.981Z,61.80
2018-03-27T06:07:47.556Z,61.70
2018-03-27T06:10:15.110Z,61.60
2018-03-27T06:12:42.704Z,61.50
2018-03-27T06:15:10.233Z,61.80
2018-03-27T06:17:37.824Z,61.70
2018-03-27T06:20:05.383Z,62.00
2018-03-27T06:22:32.941Z,61.50
2018-03-27T06:25:00.558Z,61.60
2018-03-27T06:27:28.202Z,61.70
2018-03-27T06:29:55.715Z,61.30
2018-03-27T06:32:23.347Z,61.20
2018-03-27T06:34:50.896Z,61.20
2018-03-27T06:37:18.476Z,61.40
2018-03-27T06:39:46.072Z,61.10
2018-03-27T06:42:14.014Z,61.30
2018-03-27T06:44:41.605Z,61.00
2018-03-27T06:47:09.172Z,61.20
2018-03-27T06:49:37.651Z,61.60
2018-03-27T06:52:05.210Z,61.60
2018-03-27T06:54:32.859Z,61.70
2018-03-27T06:57:01.245Z,60.90
2018-03-27T06:59:28.886Z,60.80
2018-03-27T07:01:56.594Z,60.70
2018-03-27T07:04:24.187Z,61.70
2018-03-27T07:06:51.745Z,61.10
2018-03-27T07:09:20.138Z,60.80
2018-03-27T07:11:47.732Z,60.80
2018-03-27T07:14:16.267Z,60.60
2018-03-27T07:16:43.985Z,60.70
2018-03-27T07:19:12.341Z,60.60
2018-03-27T07:21:40.880Z,60.10
2018-03-27T07:24:08.694Z,60.10
2018-03-27T07:26:37.115Z,60.30
2018-03-27T07:29:04.769Z,60.30
2018-03-27T07:31:32.665Z,59.90
2018-03-27T07:34:00.304Z,59.70
2018-03-27T07:36:27.904Z,59.70
2018-03-27T07:38:55.877Z,59.40
2018-03-27T07:41:23.680Z,58.70
2018-03-27T07:43:51.331Z,58.60
2018-03-27T07:46:18.909Z,58.40
2018-03-27T07:48:47.265Z,57.90
2018-03-27T07:51:15.623Z,56.60
2018-03-27T07:53:43.184Z,56.60
2018-03-27T07:56:10.776Z,56.50
2018-03-27T07:58:38.338Z,56.60
2018-03-27T08:01:06.682Z,56.30
2018-03-27T08:03:34.433Z,56.30
2018-03-27T08:06:02.104Z,56.20
2018-03-27T08:08:29.670Z,56.30
2018-03-27T08:10:57.289Z,55.70
2018-03-27T08:13:24.906Z,54.80
2018-03-27T08:15:53.257Z,54.40
2018-03-27T08:18:20.827Z,54.40
2018-03-27T08:20:48.475Z,54.30
2018-03-27T08:23:16.115Z,54.10
2018-03-27T08:25:44.507Z,53.70
2018-03-27T08:28:12.315Z,53.70
2018-03-27T08:30:41.180Z,52.90
2018-03-27T08:33:13.887Z,52.90
2018-03-27T08:35:41.581Z,52.30
2018-03-27T08:38:09.242Z,52.30
2018-03-27T08:40:36.805Z,52.00
2018-03-27T08:43:04.521Z,51.70
2018-03-27T08:45:32.869Z,52.10
2018-03-27T08:48:01.214Z,52.00
2018-03-27T08:50:28.800Z,51.80
2018-03-27T08:52:56.409Z,51.40
2018-03-27T08:55:24.056Z,51.50
2018-03-27T08:57:52.109Z,51.30
2018-03-27T09:00:19.731Z,50.90
2018-03-27T09:02:47.530Z,50.30
2018-03-27T09:05:15.961Z,51.10
2018-03-27T09:07:45.206Z,49.80
2018-03-27T09:10:12.921Z,49.80
2018-03-27T09:12:40.573Z,49.70
2018-03-27T09:15:08.159Z,49.90
2018-03-27T09:17:36.502Z,47.80
2018-03-27T09:20:04.071Z,47.70
2018-03-27T09:22:31.720Z,47.80
2018-03-27T09:24:59.318Z,47.80
2018-03-27T09:27:26.949Z,45.70
2018-03-27T09:29:54.509Z,45.60
2018-03-27T09:32:22.202Z,45.10
2018-03-27T09:34:49.767Z,44.50
2018-03-27T09:37:18.200Z,43.90
2018-03-27T09:39:46.627Z,43.90
2018-03-27T09:42:14.237Z,44.10
2018-03-27T09:44:41.854Z,44.90
2018-03-27T09:47:09.468Z,44.00
2018-03-27T09:49:37.098Z,42.70
2018-03-27T09:52:04.636Z,42.80
2018-03-27T09:54:32.757Z,43.20
2018-03-27T09:57:00.424Z,43.70
2018-03-27T09:59:27.988Z,43.50
2018-03-27T10:01:55.649Z,41.50
2018-03-27T10:04:23.237Z,39.70
2018-03-27T10:06:51.654Z,41.10
2018-03-27T10:09:19.353Z,41.00
2018-03-27T10:11:47.258Z,41.40
2018-03-27T10:14:14.883Z,41.50
2018-03-27T10:16:42.458Z,41.50
2018-03-27T10:19:10.084Z,41.50
2018-03-27T10:21:37.741Z,41.60
2018-03-27T10:24:05.471Z,41.10
2018-03-27T10:26:33.191Z,41.50
2018-03-27T10:29:00.772Z,41.70
2018-03-27T10:31:28.344Z,40.60
2018-03-27T10:33:56.310Z,40.80
2018-03-27T10:36:23.884Z,41.20
2018-03-27T10:38:51.513Z,41.60
2018-03-27T10:41:19.128Z,41.40
2018-03-27T10:43:46.755Z,41.30
2018-03-27T10:46:14.299Z,41.20
2018-03-27T10:48:41.910Z,41.00
2018-03-27T10:51:09.496Z,40.60
2018-03-27T10:53:37.255Z,40.80
2018-03-27T10:56:04.865Z,40.90
2018-03-27T10:58:32.471Z,40.90
2018-03-27T11:01:00.058Z,40.50
2018-03-27T11:03:27.798Z,40.40
2018-03-27T11:05:55.434Z,40.30
2018-03-27T11:08:23.071Z,40.70
2018-03-27T11:10:50.708Z,40.80
2018-03-27T11:13:18.313Z,40.80
2018-03-27T11:15:46.317Z,41.00
2018-03-27T11:18:14.023Z,39.70
2018-03-27T11:20:42.872Z,39.20
2018-03-27T11:23:10.436Z,39.00
2018-03-27T11:25:37.996Z,38.60
2018-03-27T11:28:05.554Z,36.20
2018-03-27T11:30:33.223Z,36.30
2018-03-27T11:33:00.805Z,35.60
2018-03-27T11:35:28.605Z,35.50
2018-03-27T11:37:56.241Z,35.40
2018-03-27T11:40:23.825Z,33.90
2018-03-27T11:42:51.399Z,34.20
2018-03-27T11:45:18.969Z,34.70
2018-03-27T11:47:46.535Z,34.80
2018-03-27T11:50:14.107Z,33.30
2018-03-27T11:52:42.095Z,33.30
2018-03-27T11:55:11.208Z,33.30
2018-03-27T11:57:40.300Z,33.50
2018-03-27T12:00:07.945Z,33.40
2018-03-27T12:02:35.502Z,32.40
2018-03-27T12:05:03.074Z,32.30
2018-03-27T12:07:31.441Z,32.90
2018-03-27T12:09:58.976Z,32.80
2018-03-27T12:12:26.556Z,32.80
2018-03-27T12:14:54.143Z,32.20
2018-03-27T12:17:22.541Z,32.30
2018-03-27T12:19:50.189Z,32.10
2018-03-27T12:22:17.747Z,32.20
2018-03-27T12:24:46.090Z,31.90
2018-03-27T12:27:13.796Z,31.80
2018-03-27T12:29:41.422Z,32.10
2018-03-27T12:32:09.178Z,32.10
2018-03-27T12:34:36.795Z,32.20
2018-03-27T12:37:04.388Z,31.40
2018-03-27T12:39:31.968Z,31.90
2018-03-27T12:41:59.563Z,31.50
2018-03-27T12:44:27.947Z,31.50
2018-03-27T12:46:55.546Z,30.80
2018-03-27T12:49:23.140Z,31.40
2018-03-27T12:51:50.727Z,31.60
2018-03-27T12:54:18.500Z,31.50
2018-03-27T12:56:46.101Z,31.70
2018-03-27T12:59:13.692Z,32.40
2018-03-27T13:01:41.236Z,32.70
2018-03-27T13:04:08.825Z,31.70
2018-03-27T13:06:37.157Z,32.10
2018-03-27T13:09:04.939Z,32.00
2018-03-27T13:11:32.609Z,32.20
2018-03-27T13:14:00.397Z,32.80
2018-03-27T13:16:27.957Z,33.10
2018-03-27T13:18:56.333Z,33.10
2018-03-27T13:21:24.694Z,32.60
2018-03-27T13:23:52.357Z,32.60
2018-03-27T13:26:19.933Z,32.50
2018-03-27T13:28:48.334Z,33.10
2018-03-27T13:31:15.890Z,33.00
2018-03-27T13:33:43.555Z,32.90
2018-03-27T13:36:12.041Z,33.50
2018-03-27T13:38:39.577Z,33.00
2018-03-27T13:41:07.220Z,32.90
2018-03-27T13:43:34.852Z,33.60
2018-03-27T13:46:02.583Z,33.20
2018-03-27T13:48:30.245Z,32.90
2018-03-27T13:50:58.599Z,33.30
2018-03-27T13:53:26.327Z,33.30
2018-03-27T13:55:53.952Z,33.70
2018-03-27T13:58:21.526Z,33.80
2018-03-27T14:00:49.461Z,33.20
2018-03-27T14:03:17.364Z,32.90
2018-03-27T14:05:45.024Z,32.70
2018-03-27T14:08:12.706Z,32.70
2018-03-27T14:10:40.266Z,33.10
2018-03-27T14:13:08.113Z,33.90
2018-03-27T14:15:35.837Z,32.50
2018-03-27T14:18:03.590Z,32.80
2018-03-27T14:20:32.012Z,33.00
2018-03-27T14:22:59.588Z,32.90
2018-03-27T14:25:27.291Z,32.40
2018-03-27T14:27:54.868Z,33.10
2018-03-27T14:30:22.495Z,33.40
2018-03-27T14:32:50.045Z,33.30
2018-03-27T14:35:17.649Z,33.80
2018-03-27T14:37:45.298Z,34.20
2018-03-27T14:40:12.885Z,34.30
2018-03-27T14:42:41.245Z,34.10
2018-03-27T14:45:09.383Z,34.10
2018-03-27T14:47:37.002Z,34.40
2018-03-27T14:50:04.605Z,34.20
2018-03-27T14:52:32.467Z,34.30
2018-03-27T14:55:00.865Z,35.80
2018-03-27T14:57:28.540Z,35.20
2018-03-27T14:59:56.168Z,35.00
2018-03-27T15:02:23.871Z,35.40
2018-03-27T15:04:51.458Z,35.40
2018-03-27T15:07:19.015Z,35.10
2018-03-27T15:09:46.571Z,34.40
2018-03-27T15:12:14.192Z,34.20
2018-03-27T15:14:41.789Z,34.40
2018-03-27T15:17:09.452Z,34.80
2018-03-27T15:19:37.066Z,34.70
2018-03-27T15:22:04.760Z,34.70
2018-03-27T15:24:32.324Z,34.60
2018-03-27T15:27:00.673Z,34.10
2018-03-27T15:29:28.245Z,34.10
2018-03-27T15:31:55.964Z,34.20
2018-03-27T15:34:23.567Z,34.20
2018-03-27T15:36:51.145Z,34.30
2018-03-27T15:39:19.664Z,34.40
2018-03-27T15:41:47.242Z,34.40
2018-03-27T15:44:14.816Z,33.90
2018-03-27T15:46:42.470Z,34.10
2018-03-27T15:49:10.108Z,34.60
2018-03-27T15:51:37.707Z,34.50
2018-03-27T15:54:05.249Z,34.40
2018-03-27T15:56:32.833Z,34.70
2018-03-27T15:59:00.394Z,35.00
2018-03-27T16:01:28.020Z,34.70
2018-03-27T16:03:55.604Z,34.90
2018-03-27T16:06:23.426Z,35.00
2018-03-27T16:08:51.006Z,35.10
2018-03-27T16:11:18.585Z,35.40
2018-03-27T16:13:46.169Z,35.40
2018-03-27T16:16:13.730Z,35.00
2018-03-27T16:18:41.392Z,34.90
2018-03-27T16:21:08.936Z,35.30
2018-03-27T16:23:36.513Z,35.20
2018-03-27T16:26:04.889Z,35.40
2018-03-27T16:28:32.459Z,34.30
2018-03-27T16:31:00.058Z,34.20
2018-03-27T16:33:27.656Z,34.30
2018-03-27T16:35:55.216Z,34.50
2018-03-27T16:38:22.813Z,34.60
2018-03-27T16:40:50.433Z,34.60
2018-03-27T16:43:17.985Z,34.40
2018-03-27T16:45:45.641Z,34.20
2018-03-27T16:48:13.264Z,34.80
2018-03-27T16:50:40.819Z,34.70
2018-03-27T16:53:08.476Z,34.70
2018-03-27T16:55:36.046Z,34.60
2018-03-27T16:58:03.639Z,34.60
2018-03-27T17:00:31.195Z,34.80
2018-03-27T17:02:58.877Z,34.90
2018-03-27T17:05:26.517Z,34.90
2018-03-27T17:07:54.382Z,35.10
2018-03-27T17:10:22.744Z,35.10
2018-03-27T17:12:50.345Z,35.00
2018-03-27T17:15:17.957Z,35.40
2018-03-27T17:17:45.543Z,35.50
2018-03-27T17:20:13.144Z,35.60
2018-03-27T17:22:40.730Z,35.10
2018-03-27T17:25:09.083Z,35.10
2018-03-27T17:27:36.709Z,35.10
2018-03-27T17:30:04.326Z,35.00
2018-03-27T17:32:32.742Z,35.50
2018-03-27T17:35:00.486Z,35.50
2018-03-27T17:37:28.151Z,35.70
2018-03-27T17:39:55.812Z,35.70
2018-03-27T17:42:23.354Z,35.30
2018-03-27T17:44:50.898Z,35.30
2018-03-27T17:47:19.232Z,35.70
2018-03-27T17:49:46.843Z,35.60
2018-03-27T17:52:14.426Z,35.80
2018-03-27T17:54:42.040Z,35.90
2018-03-27T17:57:09.697Z,36.00
2018-03-27T17:59:37.316Z,36.20
2018-03-27T18:02:04.871Z,36.30
2018-03-27T18:04:32.436Z,36.00
2018-03-27T18:07:00.019Z,36.30
2018-03-27T18:09:27.898Z,36.50
2018-03-27T18:11:55.748Z,36.40
2018-03-27T18:14:23.342Z,36.00
2018-03-27T18:16:50.954Z,36.10
2018-03-27T18:19:18.522Z,35.90
2018-03-27T18:21:46.096Z,36.10
2018-03-27T18:24:13.674Z,36.20
2018-03-27T18:26:41.362Z,36.30
2018-03-27T18:29:09.701Z,36.30
2018-03-27T18:31:37.236Z,36.30
2018-03-27T18:34:04.769Z,36.40
2018-03-27T18:36:32.372Z,36.60
2018-03-27T18:38:59.914Z,36.80
2018-03-27T18:41:27.642Z,37.00
2018-03-27T18:43:56.021Z,37.50
2018-03-27T18:46:24.369Z,37.70
2018-03-27T18:48:52.008Z,37.70
2018-03-27T18:51:19.569Z,37.70
2018-03-27T18:53:47.916Z,38.20
2018-03-27T18:56:15.662Z,38.10
2018-03-27T18:58:43.269Z,38.20
2018-03-27T19:01:10.832Z,38.10
2018-03-27T19:03:38.393Z,38.10
2018-03-27T19:06:06.032Z,38.30
2018-03-27T19:08:33.619Z,38.30
2018-03-27T19:11:01.171Z,38.40
2018-03-27T19:13:28.805Z,38.50
2018-03-27T19:15:56.399Z,38.50
2018-03-27T19:18:23.975Z,38.40
2018-03-27T19:20:51.569Z,38.50
2018-03-27T19:23:19.964Z,39.20
2018-03-27T19:25:48.357Z,39.50
2018-03-27T19:28:16.120Z,39.50
2018-03-27T19:30:43.708Z,39.50
2018-03-27T19:33:11.264Z,39.40
2018-03-27T19:35:38.840Z,39.80
2018-03-27T19:38:07.216Z,40.00
2018-03-27T19:40:34.790Z,40.00
2018-03-27T19:43:02.375Z,40.20
2018-03-27T19:45:30.717Z,40.20
2018-03-27T19:47:58.288Z,40.20
2018-03-27T19:50:25.886Z,40.40
2018-03-27T19:52:53.481Z,40.60
2018-03-27T19:55:21.071Z,40.60
2018-03-27T19:57:48.682Z,40.60
2018-03-27T20:00:16.230Z,40.40
2018-03-27T20:02:43.845Z,40.50
2018-03-27T20:05:11.692Z,40.70
2018-03-27T20:07:39.272Z,40.90
2018-03-27T20:10:06.825Z,41.10
2018-03-27T20:12:34.424Z,41.70
2018-03-27T20:15:02.082Z,42.00
2018-03-27T20:17:30.461Z,42.20
2018-03-27T20:19:58.867Z,42.30
2018-03-27T20:22:26.918Z,42.30
2018-03-27T20:24:55.286Z,42.80
2018-03-27T20:27:23.735Z,43.20
2018-03-27T20:29:51.313Z,43.10
2018-03-27T20:32:18.869Z,42.90
2018-03-27T20:34:46.461Z,43.00
2018-03-27T20:37:14.066Z,43.30
2018-03-27T20:39:41.687Z,43.40
2018-03-27T20:42:09.277Z,43.70
2018-03-27T20:44:36.990Z,44.00
2018-03-27T20:47:04.689Z,44.10
2018-03-27T20:49:32.279Z,44.20
2018-03-27T20:51:59.840Z,44.30
2018-03-27T20:54:27.505Z,44.40
2018-03-27T20:56:55.128Z,44.60
2018-03-27T20:59:22.690Z,44.80
2018-03-27T21:01:50.287Z,45.20
2018-03-27T21:04:18.045Z,45.60
2018-03-27T21:06:45.713Z,45.90
2018-03-27T21:09:13.286Z,46.20
2018-03-27T21:11:40.830Z,46.60
2018-03-27T21:14:08.422Z,46.40
2018-03-27T21:16:36.005Z,46.60
2018-03-27T21:19:03.645Z,46.40
2018-03-27T21:21:31.192Z,46.70
2018-03-27T21:23:58.792Z,47.50
2018-03-27T21:26:26.364Z,47.20
2018-03-27T21:28:53.965Z,47.50
2018-03-27T21:31:21.632Z,48.30
2018-03-27T21:33:49.214Z,47.90
2018-03-27T21:36:16.810Z,48.40
2018-03-27T21:38:44.392Z,48.90
2018-03-27T21:41:11.969Z,48.90
2018-03-27T21:43:39.531Z,48.90
2018-03-27T21:46:07.106Z,48.90
2018-03-27T21:48:34.671Z,48.70
2018-03-27T21:51:02.348Z,48.80
2018-03-27T21:53:29.928Z,49.50
2018-03-27T21:55:57.545Z,49.50
2018-03-27T21:58:25.232Z,49.60
2018-03-27T22:00:52.775Z,49.60
2018-03-27T22:03:20.417Z,49.60
2018-03-27T22:05:47.974Z,49.60
2018-03-27T22:08:15.550Z,49.80
2018-03-27T22:10:43.102Z,50.10
2018-03-27T22:13:10.728Z,50.40
2018-03-27T22:15:38.239Z,50.20
2018-03-27T22:18:05.887Z,50.20
2018-03-27T22:20:33.552Z,50.00
2018-03-27T22:23:01.161Z,50.90
2018-03-27T22:25:28.788Z,51.50
2018-03-27T22:27:56.357Z,51.90
2018-03-27T22:30:23.990Z,52.30
2018-03-27T22:32:51.572Z,52.90
2018-03-27T22:35:19.185Z,53.30
2018-03-27T22:37:46.775Z,53.80
2018-03-27T22:40:14.383Z,53.90
2018-03-27T22:42:41.966Z,54.20
2018-03-27T22:45:10.276Z,54.60
2018-03-27T22:47:37.933Z,55.00
2018-03-27T22:50:05.515Z,55.00
2018-03-27T22:52:33.125Z,55.30
2018-03-27T22:55:00.746Z,55.50
2018-03-27T22:57:28.303Z,56.00
2018-03-27T22:59:55.906Z,56.10
2018-03-27T23:02:23.500Z,55.90
2018-03-27T23:04:51.094Z,55.80
2018-03-27T23:07:19.438Z,56.50
2018-03-27T23:09:47.017Z,56.40
2018-03-27T23:12:14.629Z,56.90
2018-03-27T23:14:42.235Z,56.30
2018-03-27T23:17:09.760Z,56.80
2018-03-27T23:19:37.358Z,56.60
2018-03-27T23:22:05.691Z,56.40
2018-03-27T23:24:33.280Z,56.40
2018-03-27T23:27:00.835Z,57.10
2018-03-27T23:29:28.422Z,56.80
2018-03-27T23:31:56.746Z,56.80
2018-03-27T23:34:24.312Z,56.80
2018-03-27T23:36:51.866Z,56.70
2018-03-27T23:39:19.445Z,56.30
2018-03-27T23:41:47.022Z,56.20
2018-03-27T23:44:14.609Z,56.20
2018-03-27T23:46:42.235Z,56.30
2018-03-27T23:49:09.780Z,55.80
2018-03-27T23:51:37.328Z,55.40
2018-03-27T23:54:04.900Z,55.70
2018-03-27T23:56:32.448Z,55.60
2018-03-27T23:59:00.016Z,56.00
